首页
METAR-TAF:

METAR-TAF

机场 :

温斯顿-塞勒姆, 北卡罗来纳州, 美国

纬度: 36-08-00N, 经度: 080-13-29W, 海拔: 295米

当前天气观测

该预报发布于49分钟前的08:54 UTC
静风
温度 3°C
湿度 70%
气压 1024 hPa
能見度: 16.1公里
天空无云

METAR: KINT 150854Z AUTO 00000KT 10SM CLR 03/M02 A3023 RMK AO2 SLP240 T00281022 56023

时间: 04:43 (09:43 UTC)

预报

该预报发布于4小时和7分钟前的05:36 UTC
预报有效从15日的 06点(UTC)到 16日的 06点(UTC)
风速6节,风向北转东北
能見度: 10公里
阴天层高于6000英尺
从 16日的 0000点(UTC)
风速8节,风向北转东北
能見度: 10公里
阴天层高于5000英尺

TAF: KINT 150536Z 1506/1606 02006KT P6SM OVC060 FM160000 03008KT P6SM OVC050

超过4000个机场的气象观测和天气预报(METAR&TAF报告)。

可查询的气象台以黄色和红色小点在地图上表示。

将鼠标移到小点上方,可查看气象台名称。

然后点击查看天气观测和预报。

如需切换地图:点击带黑十字的绿色按钮放大地图;点击带横线的绿色按钮缩小地图;或者点击绿色箭头查看邻近地区的地图。


METAR-TAF: